Terminal Aerodrome Forecast
Issued by NWS

Home | Current Version | Previous Version | Text Only | Print | Product List | Glossary On
Versions: 1 2 3 4 5 6 7 8 9 10 11 12 13 14 15 16 17 18 19 20 21
000
FTUS41 KBGM 011100
TAFELM
TAF
KELM 011138Z 0112/0212 00000KT 2SM BR SKC
      TEMPO 0112/0113 1/2SM FG VV002
     FM011400 22007KT P6SM SCT050 SCT250
     FM020000 VRB03KT P6SM OVC100=

USA.gov is the U.S. government's official web portal to all federal, state and local government web resources and services.